Monday, October 23, 2017, 12:07 PM CDT
Back to Local

KGUY, Guymon Municipal Airport

Location: Guymon, OK, United States Lat: 36.683
Local Time: 12:07 PM CDT (17:07 GMT) Lon: -101.5
Time Zone: US/Central Elev: 3123 ft

Show me the last for .
Show Decoded

2017-10-23 11:53 METAR KGUY 231653Z AUTO 02022G29KT 10SM CLR 17/03 A3030 RMK AO2 PK WND
                 01032/1637 SLP241 T01670028 =
2017-10-23 10:53 METAR KGUY 231553Z AUTO 02025G29KT 10SM CLR 17/03 A3028 RMK AO2 PK WND
                 02029/1553 SLP233 T01670033 =
2017-10-23 09:53 METAR KGUY 231453Z AUTO 01013KT 10SM CLR 14/02 A3025 RMK AO2 SLP223 T01440022
                 53046 =
2017-10-23 08:53 METAR KGUY 231353Z AUTO 34007KT 10SM CLR 11/03 A3018 RMK AO2 SLP205 T01060028 =
2017-10-23 07:53 METAR KGUY 231253Z AUTO 31008KT 10SM CLR 09/02 A3012 RMK AO2 SLP183 T00940017 =
2017-10-23 06:53 METAR KGUY 231153Z AUTO 33006KT 10SM CLR 08/02 A3010 RMK AO2 SLP171 T00830017
                 10100 20050 53018 $ =
2017-10-23 05:53 METAR KGUY 231053Z AUTO 30006KT 10SM CLR 08/02 A3007 RMK AO2 SLP160 T00780022 $
                 =
2017-10-23 04:53 METAR KGUY 230953Z AUTO 25003KT 10SM CLR 06/02 A3004 RMK AO2 SLP149 T00610022 $
                 =
2017-10-23 03:53 METAR KGUY 230853Z AUTO 00000KT 10SM CLR 07/02 A3004 RMK AO2 SLP148 T00720017
                 56010 $ =
2017-10-23 02:53 METAR KGUY 230753Z AUTO 22006KT 10SM CLR 08/02 A3005 RMK AO2 SLP151 T00780017 $
                 =
2017-10-23 01:53 METAR KGUY 230653Z AUTO 00000KT 10SM CLR 08/01 A3006 RMK AO2 SLP155 T00780011 $
                 =
2017-10-23 00:53 METAR KGUY 230553Z AUTO 25007KT 10SM CLR 10/02 A3007 RMK AO2 SLP159 T01000017
                 10167 20083 402221006 58004 $ =
2017-10-22 23:53 METAR KGUY 230453Z AUTO 21009KT 10SM CLR 09/02 A3008 RMK AO2 SLP164 T00940022 $
                 =
2017-10-22 22:53 METAR KGUY 230353Z AUTO 22008KT 10SM CLR 10/02 A3009 RMK AO2 SLP171 T01000017 $
                 =
2017-10-22 21:53 METAR KGUY 230253Z AUTO 21008KT 10SM CLR 11/02 A3008 RMK AO2 SLP174 T01060017
                 58006 $ =
2017-10-22 20:53 METAR KGUY 230153Z AUTO 20006KT 10SM CLR 11/01 A3010 RMK AO2 SLP185 T01060011 $
                 =
2017-10-22 19:53 METAR KGUY 230053Z AUTO 20007KT 10SM CLR 13/00 A3011 RMK AO2 SLP188 T01280000 $
                 =
2017-10-22 18:53 METAR KGUY 222353Z AUTO 20007KT 10SM CLR 17/M02 A3010 RMK AO2 SLP181 T01671017
                 10222 20167 55010 $ =
2017-10-22 17:53 METAR KGUY 222253Z AUTO 21011KT 10SM CLR 21/M03 A3010 RMK AO2 SLP175 T02061028 $
                 =
2017-10-22 16:53 METAR KGUY 222153Z AUTO 22011KT 10SM CLR 22/M04 A3012 RMK AO2 SLP178 T02221039 $
                 =
2017-10-22 15:53 METAR KGUY 222053Z AUTO 21010G18KT 10SM CLR 22/M05 A3014 RMK AO2 SLP185
                 T02171050 56031 $ =
2017-10-22 14:53 METAR KGUY 221953Z AUTO 24014G21KT 10SM CLR 21/M06 A3016 RMK AO2 SLP195
                 T02111061 $ =
2017-10-22 13:53 METAR KGUY 221853Z AUTO 24014G21KT 10SM CLR 20/M07 A3020 RMK AO2 SLP207
                 T02001067 $ =
2017-10-22 12:53 METAR KGUY 221753Z AUTO 22012G20KT 10SM CLR 19/M07 A3024 RMK AO2 SLP219
                 T01891067 10194 21006 58014 $ =

Support USWX by starting your Amazon purchase here.